createdAt,value
2018-04-02T00:01:13.320Z,99441
2018-04-02T00:03:41.511Z,99443
2018-04-02T00:06:09.719Z,99451
2018-04-02T00:08:37.990Z,99450
2018-04-02T00:11:06.209Z,99446
2018-04-02T00:13:35.254Z,99441
2018-04-02T00:16:03.476Z,99458
2018-04-02T00:18:32.453Z,99457
2018-04-02T00:21:01.480Z,99446
2018-04-02T00:26:30.996Z,99460
2018-04-02T00:28:59.222Z,99436
2018-04-02T00:31:27.473Z,99455
2018-04-02T00:33:55.685Z,99457
2018-04-02T00:36:30.304Z,99459
2018-04-02T00:38:58.527Z,99459
2018-04-02T00:41:26.742Z,99464
2018-04-02T00:43:55.271Z,99463
2018-04-02T00:46:23.487Z,99468
2018-04-02T00:51:53.139Z,99474
2018-04-02T00:54:21.347Z,99468
2018-04-02T00:56:49.570Z,99487
2018-04-02T00:59:17.830Z,99469
2018-04-02T01:01:46.048Z,99482
2018-04-02T01:04:30.468Z,99481
2018-04-02T01:06:58.673Z,99491
2018-04-02T01:09:27.653Z,99489
2018-04-02T01:11:55.906Z,99489
2018-04-02T01:14:24.118Z,99486
2018-04-02T01:16:53.099Z,99505
2018-04-02T01:19:21.394Z,99482
2018-04-02T01:21:50.364Z,99487
2018-04-02T01:24:18.573Z,99506
2018-04-02T01:26:46.980Z,99500
2018-04-02T01:29:15.258Z,99502
2018-04-02T01:34:43.996Z,99503
2018-04-02T01:37:12.213Z,99489
2018-04-02T01:39:40.433Z,99500
2018-04-02T01:42:08.702Z,99509
2018-04-02T01:44:36.917Z,99505
2018-04-02T01:47:05.897Z,99504
2018-04-02T01:49:34.934Z,99516
2018-04-02T01:52:03.135Z,99517
2018-04-02T01:54:31.350Z,99519
2018-04-02T01:57:00.592Z,99519
2018-04-02T01:59:28.819Z,99526
2018-04-02T02:01:57.802Z,99526
2018-04-02T02:04:26.831Z,99533
2018-04-02T02:06:55.051Z,99543
2018-04-02T02:09:23.280Z,99549
2018-04-02T02:11:51.534Z,99545
2018-04-02T02:17:19.928Z,99543
2018-04-02T02:19:48.911Z,99534
2018-04-02T02:22:17.884Z,99545
2018-04-02T02:24:46.130Z,99552
2018-04-02T02:27:14.405Z,99546
2018-04-02T02:29:42.612Z,99554
2018-04-02T02:32:10.867Z,99553
2018-04-02T02:34:39.113Z,99563
2018-04-02T02:37:07.323Z,99555
2018-04-02T02:39:35.574Z,99570
2018-04-02T02:42:30.283Z,99551
2018-04-02T02:44:58.552Z,99580
2018-04-02T02:47:26.774Z,99570
2018-04-02T02:49:55.754Z,99569
2018-04-02T02:52:23.999Z,99575
2018-04-02T02:54:52.211Z,99586
2018-04-02T03:00:21.483Z,99578
2018-04-02T03:02:49.693Z,99589
2018-04-02T03:05:17.914Z,99582
2018-04-02T03:07:46.165Z,99586
2018-04-02T03:10:15.141Z,99586
2018-04-02T03:12:44.131Z,99606
2018-04-02T03:15:13.159Z,99597
2018-04-02T03:17:41.382Z,99607
2018-04-02T03:20:09.606Z,99609
2018-04-02T03:22:37.850Z,99606
2018-04-02T03:25:06.833Z,99610
2018-04-02T03:27:35.135Z,99605
2018-04-02T03:30:04.146Z,99620
2018-04-02T03:32:32.378Z,99619
2018-04-02T03:35:00.590Z,99606
2018-04-02T03:37:28.839Z,99618
2018-04-02T03:39:57.816Z,99629
2018-04-02T03:42:26.808Z,99643
2018-04-02T03:44:55.052Z,99633
2018-04-02T03:47:23.279Z,99651
2018-04-02T04:00:32.203Z,99663
2018-04-02T04:03:30.986Z,99660
2018-04-02T04:08:59.326Z,99658
2018-04-02T04:11:27.538Z,99676
2018-04-02T04:13:56.518Z,99685
2018-04-02T04:16:25.536Z,99689
2018-04-02T04:18:53.749Z,99681
2018-04-02T04:21:21.959Z,99693
2018-04-02T04:23:50.990Z,99685
2018-04-02T04:26:19.222Z,99695
2018-04-02T04:28:48.268Z,99687
2018-04-02T04:31:16.530Z,99695
2018-04-02T04:36:45.932Z,99699
2018-04-02T04:39:14.154Z,99707
2018-04-02T04:41:42.369Z,99705
2018-04-02T04:44:11.390Z,99716
2018-04-02T04:46:39.649Z,99713
2018-04-02T04:49:07.872Z,99710
2018-04-02T04:51:36.161Z,99719
2018-04-02T04:54:04.398Z,99737
2018-04-02T04:56:32.609Z,99739
2018-04-02T05:05:01.742Z,99756
2018-04-02T05:07:29.993Z,99748
2018-04-02T05:09:58.206Z,99753
2018-04-02T05:15:27.806Z,99772
2018-04-02T05:17:56.021Z,99769
2018-04-02T05:20:25.008Z,99769
2018-04-02T05:22:54.025Z,99767
2018-04-02T05:25:22.250Z,99776
2018-04-02T05:27:50.491Z,99777
2018-04-02T05:30:32.001Z,99786
2018-04-02T05:33:00.213Z,99784
2018-04-02T05:35:29.185Z,99788
2018-04-02T05:37:57.438Z,99782
2018-04-02T05:40:32.148Z,99803
2018-04-02T05:43:00.417Z,99784
2018-04-02T05:48:29.615Z,99798
2018-04-02T05:50:57.874Z,99811
2018-04-02T05:53:26.867Z,99802
2018-04-02T05:55:55.899Z,99810
2018-04-02T05:58:24.195Z,99821
2018-04-02T06:00:52.409Z,99813
2018-04-02T06:03:21.720Z,99823
2018-04-02T06:05:49.954Z,99822
2018-04-02T06:11:18.613Z,99841
2018-04-02T06:13:46.824Z,99836
2018-04-02T06:16:15.038Z,99834
2018-04-02T06:18:44.076Z,99836
2018-04-02T06:21:12.293Z,99848
2018-04-02T06:26:42.253Z,99863
2018-04-02T06:29:10.462Z,99876
2018-04-02T06:31:38.959Z,99873
2018-04-02T06:34:07.188Z,99877
2018-04-02T06:36:35.425Z,99870
2018-04-02T06:39:03.697Z,99880
2018-04-02T06:41:31.927Z,99886
2018-04-02T06:44:00.196Z,99883
2018-04-02T06:46:28.409Z,99890
2018-04-02T06:48:56.636Z,99877
2018-04-02T06:51:24.953Z,99884
2018-04-02T06:53:53.170Z,99889
2018-04-02T06:56:22.215Z,99914
2018-04-02T06:58:50.430Z,99904
2018-04-02T07:01:19.480Z,99899
2018-04-02T07:03:47.715Z,99905
2018-04-02T07:06:15.960Z,99903
2018-04-02T07:08:44.190Z,99908
2018-04-02T07:11:12.472Z,99909
2018-04-02T07:13:40.787Z,99907
2018-04-02T07:16:08.992Z,99915
2018-04-02T07:18:37.269Z,99920
2018-04-02T07:24:05.440Z,99929
2018-04-02T07:26:34.419Z,99917
2018-04-02T07:29:02.648Z,99923
2018-04-02T07:31:30.924Z,99932
2018-04-02T07:33:59.151Z,99946
2018-04-02T07:36:28.133Z,99937
2018-04-02T07:38:56.398Z,99923
2018-04-02T07:41:24.619Z,99933
2018-04-02T07:43:52.835Z,99950
2018-04-02T07:46:21.089Z,99939
2018-04-02T07:48:49.301Z,99947
2018-04-02T07:51:17.665Z,99949
2018-04-02T07:53:45.893Z,99948
2018-04-02T07:56:14.101Z,99951
2018-04-02T07:58:42.385Z,99946
2018-04-02T08:04:18.211Z,99954
2018-04-02T08:06:46.473Z,99958
2018-04-02T08:09:15.626Z,99964
2018-04-02T08:11:43.852Z,99963
2018-04-02T08:17:13.535Z,99965
2018-04-02T08:19:41.753Z,99971
2018-04-02T08:25:11.037Z,99971
2018-04-02T08:27:39.286Z,99984
2018-04-02T08:30:31.309Z,99991
2018-04-02T08:32:59.556Z,99993
2018-04-02T08:38:29.320Z,99980
2018-04-02T08:40:57.536Z,99985
2018-04-02T08:46:27.646Z,99988
2018-04-02T08:48:55.874Z,100010
2018-04-02T08:51:24.103Z,100006
2018-04-02T08:53:52.380Z,100002
2018-04-02T08:59:22.098Z,100001
2018-04-02T09:01:50.352Z,100003
2018-04-02T09:04:18.607Z,100002
2018-04-02T09:06:46.879Z,100003
2018-04-02T09:09:15.108Z,100008
2018-04-02T09:11:43.333Z,100001
2018-04-02T09:20:12.661Z,100004
2018-04-02T09:22:41.639Z,99997
2018-04-02T09:25:10.711Z,100002
2018-04-02T09:30:39.883Z,99994
2018-04-02T09:33:08.130Z,99988
2018-04-02T09:35:37.120Z,99992
2018-04-02T09:38:06.179Z,99985
2018-04-02T09:40:34.398Z,99985
2018-04-02T09:43:03.374Z,99984
2018-04-02T09:45:32.638Z,99975
2018-04-02T09:48:00.862Z,99980
2018-04-02T09:50:29.844Z,99974
2018-04-02T10:02:16.037Z,99976
2018-04-02T10:04:44.451Z,99990
2018-04-02T10:07:12.567Z,99978
2018-04-02T10:12:41.831Z,99975
2018-04-02T10:15:10.057Z,99984
2018-04-02T10:17:38.274Z,99983
2018-04-02T10:20:06.531Z,99972
2018-04-02T10:22:34.753Z,99975
2018-04-02T10:25:02.993Z,99970
2018-04-02T10:27:31.269Z,99977
2018-04-02T10:29:59.551Z,99973
2018-04-02T10:32:27.745Z,99975
2018-04-02T10:34:56.031Z,99979
2018-04-02T10:40:25.884Z,99982
2018-04-02T10:42:54.109Z,99975
2018-04-02T10:45:22.543Z,99975
2018-04-02T10:47:50.746Z,99978
2018-04-02T10:53:19.737Z,99966
2018-04-02T10:55:48.732Z,99962
2018-04-02T11:01:16.984Z,99952
2018-04-02T11:03:45.965Z,99967
2018-04-02T11:06:14.209Z,99963
2018-04-02T11:08:42.472Z,99963
2018-04-02T11:11:10.755Z,99964
2018-04-02T11:13:38.970Z,99967
2018-04-02T11:19:30.088Z,99959
2018-04-02T11:21:58.311Z,99968
2018-04-02T11:24:26.617Z,99969
2018-04-02T11:26:54.994Z,99964
2018-04-02T11:29:23.239Z,99960
2018-04-02T11:31:57.551Z,99961
2018-04-02T11:34:25.783Z,99966
2018-04-02T11:36:54.014Z,99945
2018-04-02T11:39:22.263Z,99959
2018-04-02T11:41:51.251Z,99945
2018-04-02T11:47:20.785Z,99946
2018-04-02T11:49:49.785Z,99956
2018-04-02T11:52:18.015Z,99958
2018-04-02T11:54:47.052Z,99946
2018-04-02T11:57:15.273Z,99958
2018-04-02T11:59:43.521Z,99954
2018-04-02T12:02:11.783Z,99961
2018-04-02T12:07:40.235Z,99965
2018-04-02T12:10:08.455Z,99962
2018-04-02T12:12:36.673Z,99967
2018-04-02T12:15:05.041Z,99961
2018-04-02T12:17:33.269Z,99960
2018-04-02T12:20:02.251Z,99960
2018-04-02T12:22:31.317Z,99957
2018-04-02T12:28:00.906Z,99968
2018-04-02T12:30:29.735Z,99954
2018-04-02T12:32:57.952Z,99955
2018-04-02T12:38:27.704Z,99969
2018-04-02T12:40:55.934Z,99968
2018-04-02T12:43:24.918Z,99968
2018-04-02T12:45:53.229Z,99970
2018-04-02T12:51:22.038Z,99972
2018-04-02T12:53:50.269Z,99979
2018-04-02T12:56:18.498Z,99973
2018-04-02T12:58:46.768Z,99974
2018-04-02T13:01:14.989Z,99970
2018-04-02T13:03:43.218Z,99970
2018-04-02T13:06:11.600Z,99984
2018-04-02T13:08:39.830Z,99980
2018-04-02T13:11:09.543Z,99974
2018-04-02T13:13:38.577Z,99983
2018-04-02T13:16:06.811Z,99978
2018-04-02T13:18:35.797Z,99996
2018-04-02T13:21:31.006Z,99983
2018-04-02T13:23:59.228Z,99984
2018-04-02T13:26:27.441Z,99994
2018-04-02T13:28:55.787Z,99991
2018-04-02T13:31:24.063Z,99991
2018-04-02T13:33:52.273Z,99990
2018-04-02T13:36:33.572Z,99987
2018-04-02T13:39:02.728Z,99990
2018-04-02T13:41:30.966Z,99991
2018-04-02T13:43:59.942Z,99982
2018-04-02T13:52:30.206Z,99978
2018-04-02T13:54:59.189Z,99973
2018-04-02T13:57:28.175Z,99979
2018-04-02T13:59:57.401Z,99975
2018-04-02T14:02:25.636Z,99982
2018-04-02T14:04:54.628Z,99987
2018-04-02T14:07:22.881Z,99978
2018-04-02T14:09:51.102Z,99980
2018-04-02T14:12:20.089Z,99990
2018-04-02T14:14:49.126Z,99990
2018-04-02T14:17:31.446Z,99980
2018-04-02T14:19:59.714Z,99981
2018-04-02T14:22:27.946Z,99994
2018-04-02T14:24:56.183Z,99999
2018-04-02T14:27:24.468Z,100001
2018-04-02T14:32:54.280Z,99993
2018-04-02T14:35:22.509Z,99987
2018-04-02T14:37:50.715Z,99981
2018-04-02T14:40:18.968Z,99986
2018-04-02T14:42:47.201Z,99979
2018-04-02T14:45:31.130Z,99980
2018-04-02T14:51:00.222Z,99965
2018-04-02T14:53:28.455Z,99971
2018-04-02T14:55:57.463Z,99954
2018-04-02T15:01:25.860Z,99945
2018-04-02T15:03:54.076Z,99952
2018-04-02T15:06:22.310Z,99953
2018-04-02T15:08:50.575Z,99969
2018-04-02T15:11:19.556Z,99968
2018-04-02T15:13:48.528Z,99971
2018-04-02T15:19:18.018Z,99967
2018-04-02T15:21:46.248Z,99961
2018-04-02T15:24:15.236Z,99961
2018-04-02T15:26:44.265Z,99941
2018-04-02T15:29:12.574Z,99940
2018-04-02T15:31:40.750Z,99941
2018-04-02T15:34:09.105Z,99946
2018-04-02T15:36:37.340Z,99935
2018-04-02T15:39:06.329Z,99933
2018-04-02T15:41:35.364Z,99925
2018-04-02T15:44:03.599Z,99929
2018-04-02T15:46:32.596Z,99924
2018-04-02T15:49:01.620Z,99937
2018-04-02T15:51:32.337Z,99939
2018-04-02T16:00:02.046Z,99938
2018-04-02T16:02:30.263Z,99938
2018-04-02T16:04:58.480Z,99928
2018-04-02T16:07:26.755Z,99934
2018-04-02T16:09:54.985Z,99940
2018-04-02T16:12:31.168Z,99941
2018-04-02T16:18:31.441Z,99932
2018-04-02T16:24:30.549Z,99941
2018-04-02T16:29:59.557Z,99936
2018-04-02T16:32:34.062Z,99941
2018-04-02T16:35:30.104Z,99941
2018-04-02T16:41:30.329Z,99939
2018-04-02T16:46:59.326Z,99935
2018-04-02T16:49:33.786Z,99936
2018-04-02T16:52:30.646Z,99941
2018-04-02T17:01:31.500Z,99954
2018-04-02T17:04:30.363Z,99949
2018-04-02T17:19:00.692Z,99967
2018-04-02T17:21:32.521Z,99961
2018-04-02T17:27:01.221Z,99945
2018-04-02T17:29:29.456Z,99951
2018-04-02T17:31:57.673Z,99955
2018-04-02T17:34:25.962Z,99945
2018-04-02T17:36:54.211Z,99947
2018-04-02T17:39:22.443Z,99958
2018-04-02T17:41:50.705Z,99958
2018-04-02T17:44:31.789Z,99953
2018-04-02T17:47:30.808Z,99954
2018-04-02T17:53:30.714Z,99961
2018-04-02T17:55:59.079Z,99963
2018-04-02T17:58:27.601Z,99962
2018-04-02T18:00:55.947Z,99956
2018-04-02T18:03:24.170Z,99960
2018-04-02T18:05:53.178Z,99960
2018-04-02T18:08:21.455Z,99957
2018-04-02T18:10:49.697Z,99955
2018-04-02T18:13:18.694Z,99964
2018-04-02T18:15:47.717Z,99967
2018-04-02T18:18:32.611Z,99968
2018-04-02T18:21:00.884Z,99962
2018-04-02T18:23:29.106Z,99960
2018-04-02T18:25:58.098Z,99955
2018-04-02T18:28:33.435Z,99961
2018-04-02T18:31:02.451Z,99965
2018-04-02T18:33:32.026Z,99971
2018-04-02T18:36:00.267Z,99962
2018-04-02T18:38:29.344Z,99965
2018-04-02T18:40:57.561Z,99963
2018-04-02T18:43:27.292Z,99973
2018-04-02T18:48:57.731Z,99973
2018-04-02T18:51:26.725Z,99972
2018-04-02T18:53:55.786Z,99979
2018-04-02T18:56:31.603Z,99983
2018-04-02T18:59:00.619Z,99983
2018-04-02T19:01:28.927Z,99977
2018-04-02T19:03:57.162Z,99972
2018-04-02T19:06:25.471Z,99973
2018-04-02T19:08:53.727Z,99968
2018-04-02T19:11:32.189Z,99971
2018-04-02T19:14:01.201Z,99974
2018-04-02T19:16:29.480Z,99983
2018-04-02T19:21:58.611Z,99972
2018-04-02T19:24:27.234Z,99977
2018-04-02T19:26:55.589Z,99975
2018-04-02T19:29:31.723Z,99975
2018-04-02T19:31:59.949Z,99977
2018-04-02T19:34:29.676Z,99973
2018-04-02T19:36:58.708Z,99983
2018-04-02T19:39:32.887Z,99984
2018-04-02T19:42:01.919Z,99973
2018-04-02T19:44:30.154Z,99969
2018-04-02T19:46:59.174Z,99978
2018-04-02T19:49:27.479Z,99968
2018-04-02T19:51:55.706Z,99973
2018-04-02T19:54:23.996Z,99976
2018-04-02T20:02:54.295Z,99976
2018-04-02T20:05:32.787Z,99974
2018-04-02T20:08:01.066Z,99968
2018-04-02T20:10:32.702Z,99968
2018-04-02T20:13:00.970Z,99962
2018-04-02T20:15:33.031Z,99966
2018-04-02T20:18:01.295Z,99970
2018-04-02T20:20:33.182Z,99968
2018-04-02T20:25:58.531Z,99960
2018-04-02T20:31:10.078Z,99963
2018-04-02T20:33:39.080Z,99962
2018-04-02T20:36:07.301Z,99954
2018-04-02T20:38:35.558Z,99953
2018-04-02T20:44:04.288Z,99953
2018-04-02T20:52:34.653Z,99954
2018-04-02T20:55:02.881Z,99945
2018-04-02T20:57:31.102Z,99943
2018-04-02T20:59:59.365Z,99930
2018-04-02T21:02:27.587Z,99929
2018-04-02T21:07:57.051Z,99939
2018-04-02T21:10:25.274Z,99941
2018-04-02T21:12:54.267Z,99934
2018-04-02T21:15:23.489Z,99928
2018-04-02T21:17:51.731Z,99930
2018-04-02T21:23:22.028Z,99931
2018-04-02T21:25:50.424Z,99923
2018-04-02T21:28:18.652Z,99918
2018-04-02T21:30:46.931Z,99917
2018-04-02T21:33:15.207Z,99919
2018-04-02T21:35:43.440Z,99916
2018-04-02T21:38:11.744Z,99914
2018-04-02T21:40:40.723Z,99913
2018-04-02T21:43:09.723Z,99915
2018-04-02T21:45:38.988Z,99913
2018-04-02T21:48:07.196Z,99898
2018-04-02T21:50:36.232Z,99911
2018-04-02T21:56:05.372Z,99895
2018-04-02T21:58:33.654Z,99889
2018-04-02T22:01:30.486Z,99902
2018-04-02T22:03:58.712Z,99893
2018-04-02T22:20:02.234Z,99873
2018-04-02T22:22:30.452Z,99878
2018-04-02T22:24:59.441Z,99871
2018-04-02T22:27:28.494Z,99871
2018-04-02T22:29:56.706Z,99865
2018-04-02T22:32:24.925Z,99868
2018-04-02T22:34:53.177Z,99871
2018-04-02T22:37:22.160Z,99862
2018-04-02T22:39:51.146Z,99865
2018-04-02T22:42:33.508Z,99863
2018-04-02T22:45:01.732Z,99855
2018-04-02T22:47:30.719Z,99855
2018-04-02T22:50:00.040Z,99853
2018-04-02T22:52:28.252Z,99854
2018-04-02T22:54:56.466Z,99859
2018-04-02T22:57:32.760Z,99853
2018-04-02T23:00:00.982Z,99839
2018-04-02T23:02:29.206Z,99841
2018-04-02T23:07:57.685Z,99835
2018-04-02T23:13:27.221Z,99831
2018-04-02T23:15:55.456Z,99829
2018-04-02T23:18:31.681Z,99824
2018-04-02T23:20:59.901Z,99820
2018-04-02T23:23:28.127Z,99817
2018-04-02T23:25:56.397Z,99822
2018-04-02T23:28:24.635Z,99820
2018-04-02T23:30:53.624Z,99797
2018-04-02T23:33:32.378Z,99807
2018-04-02T23:36:00.608Z,99797
2018-04-02T23:44:33.886Z,99796
2018-04-02T23:47:02.105Z,99788
2018-04-02T23:49:30.319Z,99797
2018-04-02T23:51:59.632Z,99790
2018-04-02T23:54:27.946Z,99792
2018-04-02T23:56:56.179Z,99792
2018-04-02T23:59:24.699Z,99788
